Time;durP1;ratioP1;P1;durP2;ratioP2;P2;SDS_P1;SDS_P2;PMS_P1;PMS_P2;Temp;Humidity;BMP_temperature;BMP_pressure;BME280_temperature;BME280_humidity;BME280_pressure;Samples;Min_cycle;Max_cycle;Signal;HPM_P1;HPM_P2
2021/01/23 00:01:04;;;;;;;27.55;13.43;;;;;;;1.51;78.49;99713.38;1663022;86;21329;-63
2021/01/23 00:03:32;;;;;;;25.12;13.93;;;;;;;1.50;78.56;99708.98;1669497;84;21054;-61
2021/01/23 00:05:59;;;;;;;29.37;13.38;;;;;;;1.54;78.64;99714.91;1692912;84;21712;-61
2021/01/23 00:08:26;;;;;;;24.80;12.68;;;;;;;1.55;78.63;99708.00;1690597;84;21090;-62
2021/01/23 00:10:55;;;;;;;25.48;12.58;;;;;;;1.56;78.60;99702.95;1690742;85;21329;-62
2021/01/23 00:13:23;;;;;;;26.87;14.28;;;;;;;1.61;78.56;99708.38;1690727;85;21062;-60
2021/01/23 00:15:50;;;;;;;30.72;14.95;;;;;;;1.58;78.48;99713.59;1690964;84;21324;-62
2021/01/23 00:18:17;;;;;;;30.23;14.80;;;;;;;1.57;78.29;99717.30;1685187;84;21357;-62
2021/01/23 00:20:45;;;;;;;29.18;14.95;;;;;;;1.54;78.25;99714.91;1669966;84;21093;-63
2021/01/23 00:23:13;;;;;;;36.00;16.77;;;;;;;1.50;78.16;99713.03;1668129;84;21397;-63
2021/01/23 00:25:40;;;;;;;47.10;20.65;;;;;;;1.48;78.07;99724.48;1670928;85;21110;-62
2021/01/23 00:28:08;;;;;;;41.10;18.52;;;;;;;1.44;78.02;99720.40;1674714;84;21418;-63
2021/01/23 00:30:35;;;;;;;41.73;18.95;;;;;;;1.40;77.98;99716.31;1683732;84;21733;-64
2021/01/23 00:33:04;;;;;;;45.92;19.40;;;;;;;1.41;78.00;99722.56;1685121;83;21293;-64
2021/01/23 00:35:32;;;;;;;48.92;18.87;;;;;;;1.38;77.86;99721.02;1670901;84;21146;-61
2021/01/23 00:38:00;;;;;;;60.00;23.02;;;;;;;1.34;77.84;99717.44;1667560;85;21814;-63
2021/01/23 00:40:27;;;;;;;65.35;23.95;;;;;;;1.29;77.82;99711.13;1667479;84;21105;-62
2021/01/23 00:42:55;;;;;;;60.75;21.48;;;;;;;1.27;77.79;99716.69;1668561;85;21784;-62
2021/01/23 00:45:23;;;;;;;65.55;22.45;;;;;;;1.22;77.69;99714.10;1668021;85;21307;-63
2021/01/23 00:47:50;;;;;;;54.13;20.17;;;;;;;1.13;77.58;99713.68;1669522;85;21349;-63
2021/01/23 00:50:18;;;;;;;50.50;20.65;;;;;;;1.07;77.60;99721.04;1668372;85;21320;-63
2021/01/23 00:52:46;;;;;;;44.93;16.60;;;;;;;0.98;77.60;99707.98;1670469;84;21336;-63
2021/01/23 00:55:13;;;;;;;42.90;17.52;;;;;;;0.95;77.84;99696.14;1669934;84;21186;-62
2021/01/23 00:57:41;;;;;;;41.58;18.15;;;;;;;0.93;78.03;99701.70;1690291;84;21343;-63
2021/01/23 01:00:12;;;;;;;38.08;17.23;;;;;;;0.90;78.09;99695.76;1669292;84;21654;-62
2021/01/23 01:02:41;;;;;;;35.33;15.13;;;;;;;0.87;78.13;99699.61;1674946;84;21826;-61
2021/01/23 01:05:11;;;;;;;35.58;16.82;;;;;;;0.86;78.16;99690.33;1668491;85;21120;-61
2021/01/23 01:07:38;;;;;;;33.63;16.37;;;;;;;0.80;78.13;99686.39;1677308;84;21098;-63
2021/01/23 01:10:07;;;;;;;34.88;15.28;;;;;;;0.76;78.27;99689.55;1667180;85;21780;-62
2021/01/23 01:12:35;;;;;;;34.73;17.02;;;;;;;0.74;78.40;99689.70;1670028;85;21106;-62
2021/01/23 01:15:03;;;;;;;37.73;16.73;;;;;;;0.74;78.46;99684.81;1669342;84;21081;-62
2021/01/23 01:17:31;;;;;;;35.48;16.55;;;;;;;0.75;78.50;99687.85;1677035;84;21192;-63
2021/01/23 01:19:58;;;;;;;36.83;17.20;;;;;;;0.71;78.42;99695.89;1671570;84;21858;-62
2021/01/23 01:22:28;;;;;;;34.60;15.63;;;;;;;0.67;78.53;99705.28;1670030;85;21386;-62
2021/01/23 01:24:56;;;;;;;35.83;17.12;;;;;;;0.62;78.51;99703.02;1669433;85;21771;-63
2021/01/23 01:27:24;;;;;;;34.27;16.60;;;;;;;0.59;78.60;99720.84;1668588;85;21143;-62
2021/01/23 01:29:51;;;;;;;35.80;16.95;;;;;;;0.58;78.66;99713.75;1672495;85;21170;-62
2021/01/23 01:32:19;;;;;;;37.17;17.40;;;;;;;0.55;78.66;99712.20;1667714;84;21078;-65
2021/01/23 01:34:46;;;;;;;33.60;16.17;;;;;;;0.55;78.81;99710.01;1670904;85;21058;-64
2021/01/23 01:37:14;;;;;;;36.50;17.05;;;;;;;0.56;78.88;99715.25;1669384;84;21087;-63
2021/01/23 01:39:41;;;;;;;33.95;15.98;;;;;;;0.57;78.83;99716.09;1671596;84;21078;-61
2021/01/23 01:42:09;;;;;;;35.48;17.60;;;;;;;0.56;78.82;99705.81;1670959;85;21148;-62
2021/01/23 01:44:37;;;;;;;35.28;17.67;;;;;;;0.57;78.84;99709.36;1670125;84;21267;-62
2021/01/23 01:47:04;;;;;;;29.70;15.10;;;;;;;0.57;78.91;99703.97;1670458;84;21151;-62
2021/01/23 01:49:32;;;;;;;36.63;16.48;;;;;;;0.56;78.93;99699.08;1670665;84;21188;-61
2021/01/23 01:51:59;;;;;;;33.15;16.65;;;;;;;0.57;78.96;99689.14;1670329;85;21178;-62
2021/01/23 01:54:27;;;;;;;36.58;16.87;;;;;;;0.58;79.02;99691.69;1667161;85;21319;-61
2021/01/23 01:56:54;;;;;;;30.75;15.40;;;;;;;0.59;79.06;99688.49;1669400;84;21296;-62
2021/01/23 01:59:22;;;;;;;34.13;15.35;;;;;;;0.59;79.17;99701.47;1680817;83;21438;-62
2021/01/23 02:02:05;;;;;;;35.23;17.15;;;;;;;0.60;79.27;99706.36;1689356;83;21315;-63
2021/01/23 02:04:53;;;;;;;30.68;15.25;;;;;;;0.61;79.31;99701.32;1687200;83;21090;-63
2021/01/23 02:07:45;;;;;;;33.92;16.12;;;;;;;0.61;79.37;99704.02;1697948;83;21233;-62
2021/01/23 02:10:36;;;;;;;30.30;15.83;;;;;;;0.61;79.43;99708.05;1655688;85;21305;-62
2021/01/23 02:13:25;;;;;;;33.25;15.88;;;;;;;0.59;79.44;99707.36;1688823;84;21157;-61
2021/01/23 02:16:15;;;;;;;29.42;14.43;;;;;;;0.58;79.52;99696.23;1662549;85;21515;-63
2021/01/23 02:18:57;;;;;;;32.63;16.02;;;;;;;0.56;79.45;99709.02;1676004;85;21071;-60
2021/01/23 02:21:46;;;;;;;32.08;16.67;;;;;;;0.54;79.59;99696.19;1676493;85;21103;-62
2021/01/23 02:24:14;;;;;;;29.70;14.18;;;;;;;0.56;79.71;99700.92;1671374;84;21332;-63
2021/01/23 02:26:59;;;;;;;29.50;14.68;;;;;;;0.57;79.81;99698.08;1673502;84;21296;-63
2021/01/23 02:29:49;;;;;;;27.05;14.65;;;;;;;0.60;79.83;99692.39;1679430;85;21454;-64
2021/01/23 02:32:16;;;;;;;26.37;13.68;;;;;;;0.63;79.83;99691.23;1685994;85;21344;-62
2021/01/23 02:34:44;;;;;;;30.15;15.25;;;;;;;0.65;79.93;99697.35;1677392;84;21399;-63
2021/01/23 02:37:11;;;;;;;30.23;14.18;;;;;;;0.67;79.97;99704.78;1647316;85;21085;-62
2021/01/23 02:39:39;;;;;;;30.37;15.25;;;;;;;0.68;79.92;99704.28;1687253;84;21333;-62
2021/01/23 02:42:07;;;;;;;25.00;12.75;;;;;;;0.69;79.87;99701.44;1682206;85;21224;-62
2021/01/23 02:44:35;;;;;;;28.17;13.65;;;;;;;0.71;79.88;99710.72;1701507;84;21285;-63
2021/01/23 02:47:02;;;;;;;28.77;13.65;;;;;;;0.68;79.76;99713.22;1701314;84;21303;-62
2021/01/23 02:49:31;;;;;;;25.90;12.80;;;;;;;0.64;79.75;99712.64;1701224;84;21049;-62
2021/01/23 02:52:13;;;;;;;28.32;14.35;;;;;;;0.60;79.73;99713.09;1701149;84;21065;-61
2021/01/23 02:54:51;;;;;;;31.17;14.73;;;;;;;0.59;79.70;99711.41;1701162;84;21351;-61
2021/01/23 02:57:19;;;;;;;26.80;14.55;;;;;;;0.59;79.76;99712.75;1701497;84;21331;-61
2021/01/23 02:59:52;;;;;;;28.10;15.15;;;;;;;0.57;79.81;99725.03;1646898;86;21375;-61
2021/01/23 03:02:20;;;;;;;30.23;14.78;;;;;;;0.57;79.85;99718.30;1686058;85;21073;-61
2021/01/23 03:04:48;;;;;;;31.45;14.70;;;;;;;0.58;79.82;99713.25;1685948;85;21342;-63
2021/01/23 03:07:16;;;;;;;29.25;15.10;;;;;;;0.61;79.82;99726.92;1685895;85;21339;-63
2021/01/23 03:09:43;;;;;;;28.77;14.23;;;;;;;0.64;79.77;99722.58;1701209;84;21038;-61
2021/01/23 03:12:11;;;;;;;28.10;14.33;;;;;;;0.67;79.77;99715.57;1701205;84;21090;-61
2021/01/23 03:14:39;;;;;;;27.87;13.65;;;;;;;0.70;79.74;99723.36;1701134;84;21106;-61
2021/01/23 03:17:06;;;;;;;29.72;14.13;;;;;;;0.71;79.66;99737.69;1701189;84;21915;-62
2021/01/23 03:19:34;;;;;;;30.52;15.03;;;;;;;0.71;79.56;99733.14;1701206;84;21184;-62
2021/01/23 03:22:02;;;;;;;30.00;14.28;;;;;;;0.69;79.41;99721.66;1701256;83;21400;-63
2021/01/23 03:24:30;;;;;;;26.10;13.72;;;;;;;0.70;79.39;99725.20;1701223;84;21450;-62
2021/01/23 03:26:57;;;;;;;25.27;12.98;;;;;;;0.70;79.43;99703.64;1701227;84;21094;-61
2021/01/23 03:29:24;;;;;;;27.60;13.58;;;;;;;0.72;79.46;99720.01;1701186;84;21364;-63
2021/01/23 03:31:52;;;;;;;27.77;13.80;;;;;;;0.74;79.52;99715.31;1701158;84;21440;-62
2021/01/23 03:34:19;;;;;;;24.72;12.58;;;;;;;0.78;79.46;99721.25;1701336;84;21228;-63
2021/01/23 03:36:47;;;;;;;26.90;13.93;;;;;;;0.76;79.29;99717.36;1701268;84;21314;-64
2021/01/23 03:39:15;;;;;;;27.58;12.37;;;;;;;0.75;79.33;99714.31;1701305;84;21286;-63
2021/01/23 03:41:42;;;;;;;26.20;13.58;;;;;;;0.75;79.35;99707.57;1701233;84;21365;-63
2021/01/23 03:44:09;;;;;;;25.95;13.03;;;;;;;0.78;79.37;99714.01;1701149;84;21097;-62
2021/01/23 03:46:37;;;;;;;28.17;12.68;;;;;;;0.80;79.29;99709.31;1701129;84;21339;-63
2021/01/23 03:49:04;;;;;;;33.80;16.60;;;;;;;0.83;79.26;99716.25;1701140;84;21077;-63
2021/01/23 03:51:32;;;;;;;27.95;13.90;;;;;;;0.83;79.19;99706.81;1701291;84;21396;-64
2021/01/23 03:53:59;;;;;;;25.72;12.18;;;;;;;0.82;79.11;99711.36;1701256;84;21298;-62
2021/01/23 03:56:27;;;;;;;24.27;12.80;;;;;;;0.80;79.02;99707.96;1701268;84;21072;-63
2021/01/23 03:58:54;;;;;;;24.85;12.18;;;;;;;0.78;78.97;99714.01;1700871;84;21282;-63
2021/01/23 04:01:22;;;;;;;26.75;13.98;;;;;;;0.79;79.04;99706.77;1701182;84;21848;-63
2021/01/23 04:03:49;;;;;;;26.05;13.32;;;;;;;0.78;79.00;99709.96;1700909;84;21450;-65
2021/01/23 04:06:17;;;;;;;25.90;13.32;;;;;;;0.79;78.99;99712.16;1701852;84;21117;-63
2021/01/23 04:08:44;;;;;;;28.67;15.13;;;;;;;0.79;79.02;99702.72;1699686;84;21297;-64
2021/01/23 04:11:12;;;;;;;26.48;13.60;;;;;;;0.78;78.89;99711.81;1670173;84;21311;-63
2021/01/23 04:13:40;;;;;;;28.95;14.43;;;;;;;0.74;78.80;99718.01;1699300;84;21093;-63
2021/01/23 04:16:08;;;;;;;25.62;13.30;;;;;;;0.69;78.64;99721.66;1670777;84;21286;-64
2021/01/23 04:18:35;;;;;;;28.07;14.18;;;;;;;0.62;78.61;99719.19;1696882;84;21856;-62
2021/01/23 04:21:04;;;;;;;32.60;16.15;;;;;;;0.55;78.49;99719.44;1686683;83;21089;-63
2021/01/23 04:23:33;;;;;;;32.95;15.88;;;;;;;0.48;78.52;99726.43;1686616;85;21120;-62
2021/01/23 04:26:02;;;;;;;31.82;16.62;;;;;;;0.44;78.63;99710.21;1657194;86;21124;-62
2021/01/23 04:28:30;;;;;;;38.15;15.28;;;;;;;0.43;78.80;99716.60;1687420;84;21101;-63
2021/01/23 04:30:57;;;;;;;34.90;17.60;;;;;;;0.44;78.80;99725.88;1661301;84;21920;-64
2021/01/23 04:33:25;;;;;;;33.30;14.95;;;;;;;0.43;78.84;99714.75;1676178;84;21451;-63
2021/01/23 04:35:53;;;;;;;28.25;15.25;;;;;;;0.43;78.83;99720.14;1655806;85;21316;-62
2021/01/23 04:38:20;;;;;;;26.50;14.40;;;;;;;0.44;78.95;99713.75;1684040;83;21372;-65
2021/01/23 04:40:47;;;;;;;31.25;15.70;;;;;;;0.47;78.96;99708.56;1669812;85;21453;-63
2021/01/23 04:43:15;;;;;;;31.05;13.75;;;;;;;0.48;79.05;99709.77;1699323;83;21307;-62
2021/01/23 04:45:42;;;;;;;27.02;15.05;;;;;;;0.50;79.05;99704.22;1669743;84;21315;-62
2021/01/23 04:48:10;;;;;;;30.68;14.15;;;;;;;0.51;79.03;99706.77;1699167;83;21714;-62
2021/01/23 04:50:37;;;;;;;25.65;14.23;;;;;;;0.53;79.05;99708.81;1670479;85;21357;-62
2021/01/23 04:53:05;;;;;;;27.70;14.38;;;;;;;0.55;79.05;99716.75;1699789;84;21363;-62
2021/01/23 04:55:33;;;;;;;27.52;14.20;;;;;;;0.53;78.98;99712.01;1699441;84;21269;-63
2021/01/23 04:58:00;;;;;;;34.90;16.25;;;;;;;0.51;78.94;99709.96;1670164;86;21114;-63
2021/01/23 05:00:28;;;;;;;30.70;15.45;;;;;;;0.47;78.90;99709.41;1688466;84;21373;-64
2021/01/23 05:03:01;;;;;;;33.02;17.23;;;;;;;0.45;78.90;99715.45;1683945;85;21089;-64
2021/01/23 05:05:30;;;;;;;38.85;18.48;;;;;;;0.43;78.87;99717.95;1684200;85;21206;-64
2021/01/23 05:08:12;;;;;;;38.80;17.37;;;;;;;0.40;78.87;99718.25;1684117;85;21913;-62
2021/01/23 05:10:42;;;;;;;30.72;15.20;;;;;;;0.36;78.76;99723.59;1684813;85;21109;-64
2021/01/23 05:13:15;;;;;;;33.53;16.48;;;;;;;0.29;78.75;99736.80;1684041;85;21086;-63
2021/01/23 05:15:46;;;;;;;32.40;15.93;;;;;;;0.22;78.71;99737.05;1683919;84;21335;-62
2021/01/23 05:18:14;;;;;;;32.73;14.83;;;;;;;0.15;78.81;99731.91;1684305;85;21090;-64
2021/01/23 05:20:47;;;;;;;30.02;14.68;;;;;;;0.12;78.93;99738.44;1683911;85;21292;-62
2021/01/23 05:23:24;;;;;;;33.33;14.47;;;;;;;0.11;79.01;99738.08;1683761;85;21157;-62
2021/01/23 05:25:56;;;;;;;27.73;13.35;;;;;;;0.07;79.00;99738.02;1683992;85;21450;-62
2021/01/23 05:28:36;;;;;;;31.62;15.55;;;;;;;0.03;79.08;99733.93;1683944;85;21079;-62
2021/01/23 05:31:15;;;;;;;28.50;13.85;;;;;;;-0.01;79.20;99736.03;1683875;85;21119;-62
2021/01/23 05:33:42;;;;;;;29.82;14.80;;;;;;;-0.01;79.36;99733.34;1684051;84;21217;-63
2021/01/23 05:36:12;;;;;;;28.90;14.35;;;;;;;0.01;79.43;99728.34;1684160;85;21079;-63
2021/01/23 05:38:45;;;;;;;31.33;14.78;;;;;;;0.03;79.46;99732.58;1684065;84;21338;-63
2021/01/23 05:41:14;;;;;;;27.90;13.18;;;;;;;0.03;79.61;99725.85;1684161;85;21417;-65
2021/01/23 05:43:52;;;;;;;30.55;14.47;;;;;;;0.05;79.68;99732.44;1684175;85;21114;-62
2021/01/23 05:46:31;;;;;;;27.60;13.50;;;;;;;0.06;79.80;99729.59;1684127;84;21082;-64
2021/01/23 05:48:59;;;;;;;32.05;14.28;;;;;;;0.11;79.92;99733.19;1684238;84;21278;-63
2021/01/23 05:51:27;;;;;;;36.23;16.73;;;;;;;0.14;79.95;99742.33;1684159;85;21070;-63
2021/01/23 05:53:55;;;;;;;50.48;25.43;;;;;;;0.15;79.90;99745.37;1684174;85;21475;-64
2021/01/23 05:56:23;;;;;;;32.45;16.90;;;;;;;0.16;79.83;99740.33;1684094;85;21736;-63
2021/01/23 05:58:51;;;;;;;29.85;14.18;;;;;;;0.18;79.78;99739.69;1684078;85;21416;-63
2021/01/23 06:01:21;;;;;;;34.40;16.52;;;;;;;0.17;79.76;99739.34;1688961;85;21776;-62
2021/01/23 06:03:51;;;;;;;34.53;15.38;;;;;;;0.20;79.76;99743.08;1689261;85;21086;-62
2021/01/23 06:06:18;;;;;;;31.77;15.30;;;;;;;0.20;79.74;99733.16;1689382;85;21050;-62
2021/01/23 06:08:54;;;;;;;25.95;13.78;;;;;;;0.18;79.64;99736.99;1689306;85;21359;-62
2021/01/23 06:11:34;;;;;;;36.95;17.27;;;;;;;0.17;79.61;99735.30;1689336;85;21756;-62
2021/01/23 06:14:02;;;;;;;34.98;16.35;;;;;;;0.17;79.59;99745.57;1689350;85;21201;-62
2021/01/23 06:16:36;;;;;;;35.05;17.40;;;;;;;0.16;79.52;99749.27;1689294;85;21624;-62
2021/01/23 06:19:18;;;;;;;32.95;17.65;;;;;;;0.16;79.53;99753.30;1689205;84;21159;-61
2021/01/23 06:21:48;;;;;;;38.13;18.27;;;;;;;0.14;79.41;99756.64;1689303;85;21066;-61
2021/01/23 06:24:41;;;;;;;38.42;16.55;;;;;;;0.15;79.49;99758.84;1689294;85;21880;-62
2021/01/23 06:27:04;;;;;;;34.45;16.45;;;;;;;0.16;79.38;99761.38;1688863;85;21293;-62
2021/01/23 06:29:43;;;;;;;32.63;16.57;;;;;;;0.14;79.30;99752.59;1689359;84;21386;-61
2021/01/23 06:32:25;;;;;;;34.38;16.27;;;;;;;0.14;79.34;99751.75;1689366;85;21102;-61
2021/01/23 06:34:58;;;;;;;36.98;18.05;;;;;;;0.17;79.39;99757.69;1689615;85;21102;-64
2021/01/23 06:37:41;;;;;;;32.75;14.68;;;;;;;0.23;79.38;99758.95;1688688;85;21296;-60
2021/01/23 06:40:16;;;;;;;35.40;15.25;;;;;;;0.25;79.33;99761.00;1688908;85;21364;-62
2021/01/23 06:42:48;;;;;;;34.63;15.72;;;;;;;0.27;79.29;99766.59;1689480;84;21448;-62
2021/01/23 06:45:25;;;;;;;27.17;15.03;;;;;;;0.30;79.29;99775.72;1689401;84;21317;-62
2021/01/23 06:47:55;;;;;;;;;;;;;;;0.33;79.32;99771.03;1691914;85;21349;-62
2021/01/23 06:50:43;;;;;;;33.20;14.90;;;;;;;0.36;79.30;99777.47;1689483;84;20205;-61
2021/01/23 06:53:22;;;;;;;38.08;15.53;;;;;;;0.38;79.34;99764.70;1689444;85;21122;-62
2021/01/23 06:55:54;;;;;;;28.47;14.47;;;;;;;0.43;79.39;99763.76;1689296;85;21031;-61
2021/01/23 06:58:28;;;;;;;26.30;13.70;;;;;;;0.49;79.41;99757.77;1689595;85;21459;-63
2021/01/23 07:00:57;;;;;;;30.50;15.32;;;;;;;0.54;79.33;99756.83;1685039;84;21117;-62
2021/01/23 07:03:27;;;;;;;26.65;14.78;;;;;;;0.57;79.31;99749.79;1683876;84;21921;-63
2021/01/23 07:06:01;;;;;;;29.40;14.28;;;;;;;0.58;79.27;99746.94;1684519;85;21329;-61
2021/01/23 07:08:34;;;;;;;31.30;15.20;;;;;;;0.59;79.28;99745.09;1684580;85;21320;-62
2021/01/23 07:11:17;;;;;;;26.68;13.55;;;;;;;0.61;79.34;99749.34;1684222;85;21050;-61
2021/01/23 07:14:06;;;;;;;28.25;14.78;;;;;;;0.67;79.29;99756.00;1684394;84;21141;-63
2021/01/23 07:16:39;;;;;;;30.65;15.30;;;;;;;0.71;79.37;99762.80;1684261;85;21365;-63
2021/01/23 07:19:08;;;;;;;34.08;16.52;;;;;;;0.75;79.29;99766.04;1684181;85;21328;-63
2021/01/23 07:21:41;;;;;;;34.48;17.25;;;;;;;0.78;79.29;99761.20;1684218;84;21101;-61
2021/01/23 07:24:09;;;;;;;32.10;17.37;;;;;;;0.80;79.12;99769.13;1658019;85;21914;-62
2021/01/23 07:26:37;;;;;;;33.98;17.50;;;;;;;0.83;79.07;99767.48;1684205;84;21246;-62
2021/01/23 07:29:05;;;;;;;34.33;16.80;;;;;;;0.82;79.01;99775.22;1656805;85;21297;-62
2021/01/23 07:31:33;;;;;;;35.23;18.87;;;;;;;0.84;79.02;99770.53;1656952;85;21355;-64
2021/01/23 07:34:07;;;;;;;35.20;17.30;;;;;;;0.86;79.06;99766.67;1684486;84;21321;-64
2021/01/23 07:36:38;;;;;;;38.55;18.27;;;;;;;0.89;79.02;99773.11;1684126;85;21436;-63
2021/01/23 07:39:11;;;;;;;46.13;21.65;;;;;;;0.92;78.99;99764.72;1684225;85;21310;-64
2021/01/23 07:41:49;;;;;;;61.65;30.60;;;;;;;0.97;78.90;99759.38;1684323;85;21058;-65
2021/01/23 07:44:17;;;;;;;40.38;18.40;;;;;;;1.01;78.88;99755.38;1684345;85;21313;-64
2021/01/23 07:46:45;;;;;;;38.58;17.10;;;;;;;1.04;78.87;99749.17;1684038;85;21341;-63
2021/01/23 07:49:24;;;;;;;41.00;17.62;;;;;;;1.09;78.83;99755.45;1684303;84;21098;-63
2021/01/23 07:52:07;;;;;;;39.85;18.67;;;;;;;1.14;78.73;99751.80;1684338;84;21773;-63
2021/01/23 07:54:50;;;;;;;39.60;19.48;;;;;;;1.17;78.55;99760.44;1660393;85;21079;-62
2021/01/23 07:57:18;;;;;;;39.10;20.02;;;;;;;1.20;78.49;99765.52;1684224;84;21818;-63
2021/01/23 07:59:50;;;;;;;44.13;19.23;;;;;;;1.25;78.38;99781.25;1684185;85;21457;-64
2021/01/23 08:02:17;;;;;;;39.50;19.60;;;;;;;1.26;78.37;99781.09;1689403;85;21071;-62
2021/01/23 08:04:54;;;;;;;41.80;19.90;;;;;;;1.34;78.25;99788.95;1689663;85;21343;-63
2021/01/23 08:07:27;;;;;;;42.08;19.62;;;;;;;1.37;78.11;99785.45;1689381;85;21855;-63
2021/01/23 08:10:13;;;;;;;39.13;18.02;;;;;;;1.42;78.10;99783.14;1689394;85;21046;-63
2021/01/23 08:12:45;;;;;;;42.35;20.52;;;;;;;1.48;77.97;99779.82;1689512;85;21754;-63
2021/01/23 08:15:13;;;;;;;38.67;19.02;;;;;;;1.54;77.84;99783.75;1687646;85;21421;-62
2021/01/23 08:17:43;;;;;;;42.38;19.37;;;;;;;1.58;77.70;99789.19;1689390;85;21091;-62
2021/01/23 08:20:14;;;;;;;36.88;17.70;;;;;;;1.64;77.58;99790.41;1689472;85;21083;-64
2021/01/23 08:23:05;;;;;;;39.55;19.30;;;;;;;1.71;77.53;99792.84;1689373;85;21239;-63
2021/01/23 08:25:52;;;;;;;38.80;17.73;;;;;;;1.77;77.46;99780.91;1689321;85;21778;-63
2021/01/23 08:28:42;;;;;;;37.73;16.37;;;;;;;1.83;77.29;99785.68;1689561;85;21313;-62
2021/01/23 08:31:24;;;;;;;35.73;17.27;;;;;;;1.87;77.09;99784.86;1689365;85;21057;-62
2021/01/23 08:33:54;;;;;;;33.50;15.25;;;;;;;1.91;77.04;99784.89;1689509;85;21361;-63
2021/01/23 08:36:27;;;;;;;34.70;16.75;;;;;;;1.98;76.94;99775.19;1689461;84;21117;-63
2021/01/23 08:39:04;;;;;;;36.08;17.30;;;;;;;2.05;76.87;99771.34;1689326;85;21127;-64
2021/01/23 08:41:34;;;;;;;34.15;17.27;;;;;;;2.12;76.79;99780.01;1689565;85;21069;-63
2021/01/23 08:44:02;;;;;;;34.53;17.35;;;;;;;2.18;76.63;99782.08;1689352;84;21230;-63
2021/01/23 08:46:30;;;;;;;41.50;19.27;;;;;;;2.25;76.48;99782.79;1689469;84;21073;-62
2021/01/23 08:48:59;;;;;;;39.95;19.82;;;;;;;2.30;76.32;99784.00;1689431;85;21074;-63
2021/01/23 08:51:27;;;;;;;46.85;20.12;;;;;;;2.36;76.19;99777.11;1689436;85;21333;-62
2021/01/23 08:53:54;;;;;;;42.80;20.45;;;;;;;2.41;76.00;99772.06;1689350;85;21326;-63
2021/01/23 08:56:22;;;;;;;40.33;19.25;;;;;;;2.45;75.82;99770.73;1689451;85;21043;-63
2021/01/23 08:58:49;;;;;;;38.85;19.70;;;;;;;2.49;75.72;99768.05;1689442;85;21375;-64
2021/01/23 09:01:17;;;;;;;40.38;19.37;;;;;;;2.52;75.58;99769.08;1686828;85;21110;-62
2021/01/23 09:03:45;;;;;;;43.08;20.60;;;;;;;2.53;75.44;99774.33;1679326;84;21329;-69
2021/01/23 09:06:12;;;;;;;42.43;19.23;;;;;;;2.54;75.37;99767.91;1681512;85;21185;-64
2021/01/23 09:08:40;;;;;;;42.95;19.80;;;;;;;2.54;75.28;99769.27;1678321;84;21251;-65
2021/01/23 09:11:07;;;;;;;44.10;20.12;;;;;;;2.59;75.25;99775.54;1682912;84;21275;-63
2021/01/23 09:13:41;;;;;;;42.38;19.92;;;;;;;2.61;75.21;99773.55;1670583;85;21306;-63
2021/01/23 09:16:09;;;;;;;41.42;18.90;;;;;;;2.65;75.18;99764.11;1666705;84;21872;-64
2021/01/23 09:18:37;;;;;;;39.78;19.90;;;;;;;2.69;75.08;99770.88;1667014;84;21891;-60
2021/01/23 09:21:07;;;;;;;41.88;19.32;;;;;;;2.72;75.10;99761.09;1670834;84;21314;-61
2021/01/23 09:23:34;;;;;;;41.73;18.90;;;;;;;2.78;74.99;99758.23;1668879;84;21604;-60
2021/01/23 09:26:03;;;;;;;39.98;18.10;;;;;;;2.79;74.85;99764.84;1668774;86;21403;-61
2021/01/23 09:28:30;;;;;;;38.20;18.02;;;;;;;2.82;74.77;99760.45;1668896;86;21297;-63
2021/01/23 09:31:00;;;;;;;36.42;17.50;;;;;;;2.84;74.68;99753.02;1668810;86;21295;-62
2021/01/23 09:33:30;;;;;;;33.53;16.73;;;;;;;2.88;74.69;99754.89;1676928;85;21182;-62
2021/01/23 09:35:58;;;;;;;34.88;16.70;;;;;;;2.93;74.62;99750.34;1688450;84;21073;-62
2021/01/23 09:38:25;;;;;;;33.48;16.42;;;;;;;2.95;74.54;99757.28;1681565;85;21766;-62
2021/01/23 09:41:00;;;;;;;35.08;17.90;;;;;;;2.97;74.45;99757.11;1671324;84;21212;-64
2021/01/23 09:43:30;;;;;;;43.33;17.45;;;;;;;2.98;74.43;99752.05;1671576;85;21812;-60
2021/01/23 09:45:57;;;;;;;42.98;19.82;;;;;;;3.00;74.38;99745.96;1671311;85;21310;-60
2021/01/23 09:48:25;;;;;;;39.60;19.00;;;;;;;2.99;74.28;99751.03;1671210;84;21256;-62
2021/01/23 09:50:53;;;;;;;40.85;19.15;;;;;;;3.01;74.33;99749.01;1671041;84;21086;-62
2021/01/23 09:53:24;;;;;;;41.35;18.80;;;;;;;3.03;74.32;99755.09;1671389;85;21225;-61
2021/01/23 09:55:51;;;;;;;111.75;60.12;;;;;;;3.09;74.36;99755.80;1667067;86;21184;-60
2021/01/23 09:58:20;;;;;;;62.70;33.70;;;;;;;3.13;74.79;99749.03;1668284;86;21804;-67
2021/01/23 10:00:54;;;;;;;41.02;19.87;;;;;;;3.19;75.23;99742.95;1666892;84;21056;-67
2021/01/23 10:03:21;;;;;;;40.30;18.75;;;;;;;3.26;75.52;99744.02;1675802;84;21091;-60
2021/01/23 10:05:49;;;;;;;40.05;18.30;;;;;;;3.32;75.35;99750.11;1691803;84;21485;-63
2021/01/23 10:08:17;;;;;;;39.98;17.55;;;;;;;3.35;74.94;99761.96;1670465;84;21838;-65
2021/01/23 10:10:44;;;;;;;35.38;17.80;;;;;;;3.37;74.61;99759.94;1670901;85;21232;-67
2021/01/23 10:13:12;;;;;;;40.38;19.65;;;;;;;3.40;74.39;99760.95;1671059;85;21156;-66
2021/01/23 10:15:40;;;;;;;39.13;19.02;;;;;;;3.45;74.15;99763.16;1668508;86;21061;-64
2021/01/23 10:18:08;;;;;;;31.05;16.87;;;;;;;3.49;73.94;99766.72;1668576;86;21065;-64
2021/01/23 10:20:38;;;;;;;39.75;18.32;;;;;;;3.53;73.75;99761.81;1670717;86;21350;-61
2021/01/23 10:23:09;;;;;;;37.45;16.60;;;;;;;3.58;73.54;99762.66;1671223;85;21212;-63
2021/01/23 10:25:37;;;;;;;40.85;17.87;;;;;;;3.62;73.29;99761.31;1671092;85;21428;-65
2021/01/23 10:28:06;;;;;;;33.25;16.42;;;;;;;3.67;73.25;99757.58;1670948;84;21309;-65
2021/01/23 10:30:33;;;;;;;37.25;17.75;;;;;;;3.73;73.19;99750.13;1671238;85;21115;-63
2021/01/23 10:33:01;;;;;;;31.55;16.27;;;;;;;3.78;73.01;99750.47;1671291;86;21819;-63
2021/01/23 10:35:29;;;;;;;34.85;17.17;;;;;;;3.84;72.92;99753.84;1671200;86;21376;-63
2021/01/23 10:37:56;;;;;;;32.53;16.42;;;;;;;3.88;72.71;99748.94;1671268;84;21302;-64
2021/01/23 10:40:24;;;;;;;36.73;17.05;;;;;;;3.91;72.55;99737.28;1671046;86;21324;-62
2021/01/23 10:42:51;;;;;;;35.98;16.37;;;;;;;3.95;72.37;99740.49;1670998;84;21357;-62
2021/01/23 10:45:19;;;;;;;33.85;16.75;;;;;;;3.96;72.25;99737.61;1671014;86;21502;-66
2021/01/23 10:47:46;;;;;;;32.98;15.38;;;;;;;3.96;72.16;99738.97;1671128;84;21824;-64
2021/01/23 10:50:14;;;;;;;36.38;17.62;;;;;;;3.97;72.11;99742.02;1671321;84;21328;-64
2021/01/23 10:52:42;;;;;;;35.92;17.70;;;;;;;3.96;72.09;99744.38;1671229;86;21106;-67
2021/01/23 10:55:10;;;;;;;31.20;15.10;;;;;;;3.97;72.13;99737.10;1671308;85;21229;-64
2021/01/23 10:57:38;;;;;;;35.20;17.52;;;;;;;3.97;72.02;99740.66;1671389;86;21288;-65
2021/01/23 11:00:07;;;;;;;37.17;16.40;;;;;;;3.96;72.07;99737.61;1671315;86;21097;-65
2021/01/23 11:02:39;;;;;;;36.35;17.00;;;;;;;3.97;72.04;99740.66;1671256;84;21228;-62
2021/01/23 11:05:08;;;;;;;35.40;15.13;;;;;;;3.97;72.01;99718.13;1671322;86;21840;-70
2021/01/23 11:07:37;;;;;;;39.83;18.12;;;;;;;3.97;72.03;99712.20;1667833;85;21122;-66
2021/01/23 11:10:07;;;;;;;41.10;17.77;;;;;;;3.95;72.11;99707.45;1681620;84;22140;-64
2021/01/23 11:12:36;;;;;;;37.00;17.80;;;;;;;3.97;72.27;99710.00;1682951;84;21762;-63
2021/01/23 11:15:05;;;;;;;34.95;17.17;;;;;;;3.97;72.30;99708.14;1685428;84;21421;-63
2021/01/23 11:17:36;;;;;;;41.05;17.20;;;;;;;3.99;72.26;99707.45;1685136;84;21102;-61
2021/01/23 11:20:05;;;;;;;42.05;16.17;;;;;;;4.00;72.32;99696.95;1685032;84;21747;-64
2021/01/23 11:22:33;;;;;;;34.63;18.07;;;;;;;4.02;72.27;99694.91;1673431;85;21121;-62
2021/01/23 11:25:01;;;;;;;38.15;18.95;;;;;;;4.03;72.24;99696.60;1684607;84;21433;-65
2021/01/23 11:27:29;;;;;;;36.53;17.62;;;;;;;4.04;72.39;99696.09;1658041;86;21165;-63
2021/01/23 11:29:57;;;;;;;35.40;16.85;;;;;;;4.05;72.35;99702.70;1658121;86;21089;-63
2021/01/23 11:32:24;;;;;;;34.98;15.93;;;;;;;4.02;72.37;99703.04;1658126;86;21322;-64
2021/01/23 11:34:52;;;;;;;35.05;15.38;;;;;;;4.00;72.38;99698.30;1672093;84;21065;-66
2021/01/23 11:37:20;;;;;;;34.92;15.00;;;;;;;4.01;72.35;99705.92;1684550;84;21102;-64
2021/01/23 11:39:48;;;;;;;31.85;15.90;;;;;;;3.98;72.24;99703.56;1685429;85;21102;-63